KIAH/IAH METAR and TAF weather

Enter ICAO airport designator
Station Type Date Time Source
KIAH METAR 2022/01/19 20:47 UTC NOAA

KIAH 192047Z 32018KT 4SM +TSRA FEW012 BKN035CB BKN140 BKN250 19/16 A2988 RMK AO2 FRQ LTGICCCCG ALQDS TS ALQDS MOV NE P0003 $


Station Type Date Time Source
KIAH Decoded METAR 2022/01/19 20:47 UTC NOAA

HOUSTON INTERCONTINENTAL, TX, United States (KIAH) 30-00N 095-22W 36M
Jan 19, 2022 - 03:47 PM EST / 2022.01.19 2047 UTC
Wind: from the NW (320 degrees) at 21 MPH (18 KT):0
Visibility: 4 mile(s):0
Sky conditions: mostly cloudy
Weather: heavy rain with thunder; Cumulonimbus clouds, lightning observed
Precipitation last hour: 0.03 inches
Temperature: 66 F (19 C)
Dew Point: 60 F (16 C)
Relative Humidity: 82%
Pressure (altimeter): 29.88 in. Hg (1011 hPa)
ob: KIAH 192047Z 32018KT 4SM +TSRA FEW012 BKN035CB BKN140 BKN250 19/16 A2988 RMK AO2 FRQ LTGICCCCG ALQDS TS ALQDS MOV NE P0003
cycle: 21

Station Type Date Time Source
KIAH TAF 2022/01/19 18:33 UTC NOAA

TAF KIAH 191730Z 1918/2024 20010KT P6SM BKN025 OVC250
FM192000 21010KT P6SM VCTS SCT025CB BKN040
TEMPO 2000/2003 6SM TSRA BR BKN025CB
FM200300 32011KT P6SM VCSH BKN035
FM200600 35013G24KT P6SM SCT018 BKN035
FM201300 35016G25KT P6SM BKN018

Example: see airport list